<<    Juli 2011    >>
Datum    Temp.       Tempmin      Tempmax    Taup.       Taup.min      Taup.max    Feuchte    Feuchtemin    Feuchtemax    Druck    Druckmin    Druckmax    Regen    Wind    Benmax  
  01.07.2011  14,9    11,1    08:06    20,2    14:02  8,0    3,9    14:29    13,7    11:07  65,8    36    14:12    98    08:50  1022,4    1021    14:25    1024    08:40  1,9  3,3  23,8  
  02.07.2011  15,0    9,6    05:13    20,2    16:35  6,7    4,1    19:46    9,7    08:18  59,8    37    17:05    84    05:54  1018,6    1016    17:40    1022    00:00  0,0  3,6  16,9  
  03.07.2011  16,3    12,3    05:41    20,8    15:49  6,8    5,2    10:24    8,2    07:44  54,6    39    16:14    73    05:42  1016,2    1015    02:54    1018    12:24  0,0  4,4  17,6  
  04.07.2011  15,8    12,1    02:54    20,5    17:50  8,9    7,7    02:47    10,0    07:05  64,5    46    17:09    79    04:20  1016,5    1015    04:54    1019    13:54  0,0  1,7  10,4  
  05.07.2011  20,0    10,7    05:31    29,1    16:42  9,3    7,6    21:09    12,4    08:35  55,0    29    16:30    88    06:58  1013,4    1008    23:09    1016    00:00  0,0  1,5  10,4  
  06.07.2011  20,9    16,5    23:59    27,5    15:52  9,9    6,7    21:20    13,1    03:02  51,4    29    15:42    72    06:54  1008,4    1006    04:24    1011    22:08  0,0  2,7  25,2  
  07.07.2011  21,0    15,9    03:54    27,2    16:39  8,4    4,6    21:32    11,9    07:54  47,8    26    17:13    72    04:04  1009,1    1006    19:53    1011    00:00  0,0  1,9  17,6  
  08.07.2011  21,0    16,7    04:48    26,1    17:11  7,7    3,7    22:05    12,7    06:25  44,8    27    16:55    76    06:08  1010,3    1008    00:00    1013    22:08  0,0  2,8  20,9  
  09.07.2011  20,4    16,3    07:32    27,1    12:54  9,0    5,2    00:00    13,4    08:55  49,1    30    12:46    78    08:11  1013,7    1011    04:23    1018    21:53  0,9  3,4  20,5  
  10.07.2011  20,7    16,5    06:48    26,2    14:24  8,6    5,9    16:14    11,1    08:24  47,4    31    13:48    66    07:03  1018,2    1017    00:00    1019    03:08  0,0  1,6  13,0  
  11.07.2011  21,4    14,5    04:42    27,2    17:01  8,7    6,9    20:49    12,0    09:16  46,2    30    17:30    68    05:28  1018,7    1017    18:37    1020    05:07  0,0  1,5  11,9  
  12.07.2011  23,1    15,1    06:05    31,4    14:42  9,7    7,5    01:41    12,2    23:49  44,8    25    14:47    72    06:46  1012,4    1007    18:22    1018    00:00  0,0  2,0  15,8  
  13.07.2011  16,5    13,4    23:59    21,7    00:00  12,6    11,2    16:48    14,9    03:14  78,6    54    00:00    91    21:03  1009,1    1006    00:22    1014    23:37  0,0  4,3  23,0  
  14.07.2011  15,0    13,1    23:59    17,7    14:57  9,1    5,9    18:23    11,7    00:20  69,1    49    18:10    89    00:00  1013,9    1012    05:36    1017    22:36  0,0  5,5  28,4  
  15.07.2011  18,5    12,7    00:21    25,5    16:32  7,5    3,1    17:05    10,7    09:54  52,9    24    16:35    83    00:27  1016,7    1015    00:36    1019    12:06  0,0  4,2  23,8  
  16.07.2011  19,9    14,9    05:42    26,6    13:22  8,1    5,2    05:22    15,8    23:56  49,6    30    13:25    94    23:56  1008,8    1000    23:59    1016    00:00  6,8  2,9  16,9  
  17.07.2011  17,8    14,4    06:21    22,0    17:07  11,6    5,0    20:23    17,3    10:27  72,3    38    17:07    98    01:08  999,2    996    04:22    1002    22:21  6,4  3,6  24,5  
  18.07.2011  18,1    14,9    05:44    22,6    15:32  7,5    5,4    21:44    9,9    07:53  50,8    35    15:35    69    06:01  1002,2    1000    04:36    1005    23:59  0,0  3,7  17,6  
  19.07.2011  17,5    13,4    06:17    24,4    13:29  10,6    5,6    00:07    16,8    19:58  66,7    36    15:34    98    23:59  1004,0    1003    05:05    1005    00:00  3,0  1,7  14,0  
  20.07.2011  17,7    13,8    04:13    21,9    15:06  13,4    10,3    15:38    16,9    10:36  78,8    49    15:38    98    00:00  1007,3    1005    00:00    1011    22:20  0,0  2,3  15,8  
  21.07.2011  17,0    13,5    06:18    21,4    17:42  12,9    9,7    17:51    17,1    15:01  78,1    48    17:31    98    13:13  1009,4    1008    16:35    1011    12:50  3,7  1,7  13,0  
  22.07.2011  16,6    13,5    06:16    20,2    16:40  9,1    4,8    21:02    13,8    00:49  63,4    41    16:35    87    03:20  1011,2    1009    00:05    1013    23:59  0,0  3,7  19,4  
  23.07.2011  14,2    11,1    06:31    18,4    17:09  7,9    6,2    00:00    10,4    20:33  66,7    48    15:40    81    18:57  1010,9    1009    15:04    1013    00:00  0,9  3,4  17,3  
  24.07.2011  12,6    10,7    05:09    14,2    14:36  11,7    7,8    01:52    13,9    14:36  94,3    75    01:52    98    05:51  1009,1    1007    08:35    1011    18:34  13,5  1,9  15,1  
  25.07.2011  16,1    10,4    06:01    22,9    15:58  11,5    7,6    18:21    16,9    11:49  77,9    41    17:47    98    00:00  1009,1    1007    17:49    1011    00:00  0,0  1,5  13,7  
  26.07.2011  17,2    14,8    06:01    20,4    16:47  12,3    9,6    15:43    14,4    10:34  74,5    51    15:43    92    05:57  1011,5    1008    03:03    1015    19:03  0,9  1,9  13,0  
  27.07.2011  17,3    15,0    05:59    22,8    14:10  14,8    10,3    17:21    17,5    11:32  86,4    52    17:15    98    23:59  1016,2    1015    00:00    1018    23:18  3,9  1,3  17,3  
  28.07.2011  17,8    15,4    03:25    24,2    15:48  15,9    12,0    16:41    18,8    11:04  89,8    51    16:04    98    00:00  1017,5    1016    15:18    1018    00:00  5,5  0,7  13,0  
  29.07.2011  17,6    15,5    04:14    21,1    14:58  12,8    7,7    17:10    16,5    10:51  76,5    44    16:40    98    00:00  1018,4    1017    02:03    1019    00:03  0,0  3,3  18,0  
  30.07.2011  15,5    14,0    05:13    17,1    11:43  10,7    8,8    18:23    12,4    07:17  73,4    60    15:26    89    05:44  1018,1    1017    02:47    1019    00:02  0,0  3,8  15,8  
  31.07.2011  15,6    11,9    23:58    18,0    19:52  8,4    6,0    12:57    10,9    02:01  63,3    48    20:01    79    02:01  1017,4    1016    19:02    1019    10:47  0,0  1,9  10,1  
 
  Gesamt  17,7  9,6            31,4            10,0  3,1            18,8            64,3  24            98            1012,5  996            1024            47,3  2,7  28,4  
 
  Mittelwert  17,7  13,7            22,8            10,0  6,8            13,5            64,3  40,6            85,9            1012,5  1010,1            1015,0            1,5  2,7  17,2  
  Minimum  12,6  9,6            14,2            6,7  3,1            8,2            44,8  24,0            66,0            999,2  996,0            1002,0            0,0  0,7  10,1  
  Maximum  23,1  16,7            31,4            15,9  12,0            18,8            94,3  75,0            98,0            1022,4  1021,0            1024,0            13,5  5,5  28,4  

  Heie Tage    Tmax >=30C     1  
  Sommertage    Tmax >=25C     10  
  Warme Tage    Tmax >=20C     26  
  Kalte Tage    Tmax  <10C     0  
  Frosttage    Tmin  <0C     0  
  Eistage    Tmax  <0C     0  
  Regentage > 0 mm    11  
  Regentage > 2 mm    7  
  Regentage > 10 mm    1  
  Regentage > 20 mm    0